createdAt,value
2022-08-10T00:00:49.483Z,59.17
2022-08-10T00:01:51.273Z,58.97
2022-08-10T00:02:49.378Z,59.07
2022-08-10T00:03:49.328Z,59.36
2022-08-10T00:04:49.294Z,59.36
2022-08-10T00:05:52.792Z,59.45
2022-08-10T00:06:49.184Z,59.45
2022-08-10T00:07:49.137Z,59.36
2022-08-10T00:08:49.092Z,59.55
2022-08-10T00:09:50.948Z,59.36
2022-08-10T00:10:49.000Z,59.17
2022-08-10T00:11:48.955Z,59.65
2022-08-10T00:12:54.750Z,59.36
2022-08-10T00:13:48.858Z,59.36
2022-08-10T00:14:48.822Z,59.75
2022-08-10T00:15:53.512Z,59.75
2022-08-10T00:16:48.719Z,59.55
2022-08-10T00:17:48.671Z,59.45
2022-08-10T00:18:48.623Z,59.81
2022-08-10T00:20:03.436Z,60.20
2022-08-10T00:20:48.530Z,60.30
2022-08-10T00:21:48.481Z,60.58
2022-08-10T00:22:48.888Z,60.68
2022-08-10T00:23:48.401Z,60.39
2022-08-10T00:24:48.333Z,60.49
2022-08-10T00:25:48.290Z,60.46
2022-08-10T00:27:52.661Z,60.20
2022-08-10T00:28:02.775Z,60.77
2022-08-10T00:28:48.151Z,61.25
2022-08-10T00:29:48.118Z,61.13
2022-08-10T00:30:48.050Z,60.75
2022-08-10T00:31:58.308Z,61.22
2022-08-10T00:32:47.958Z,60.94
2022-08-10T00:33:47.909Z,61.13
2022-08-10T00:34:47.880Z,61.71
2022-08-10T00:35:47.830Z,61.61
2022-08-10T00:36:47.766Z,61.61
2022-08-10T00:37:57.655Z,61.61
2022-08-10T00:38:47.678Z,61.80
2022-08-10T00:39:47.656Z,62.57
2022-08-10T00:40:47.596Z,62.93
2022-08-10T00:42:01.764Z,62.74
2022-08-10T00:42:47.483Z,62.93
2022-08-10T00:43:47.438Z,62.93
2022-08-10T00:44:47.387Z,63.02
2022-08-10T00:45:47.352Z,63.22
2022-08-10T00:46:47.290Z,62.93
2022-08-10T00:47:47.243Z,63.02
2022-08-10T00:48:47.199Z,63.51
2022-08-10T00:49:47.167Z,63.60
2022-08-10T00:50:47.104Z,64.18
2022-08-10T00:51:48.885Z,63.51
2022-08-10T00:52:47.003Z,64.08
2022-08-10T00:53:46.959Z,64.08
2022-08-10T00:54:46.909Z,64.25
2022-08-10T00:57:14.444Z,64.34
2022-08-10T00:57:17.742Z,64.43
2022-08-10T00:57:46.766Z,64.34
2022-08-10T00:58:46.737Z,64.43
2022-08-10T00:59:59.482Z,64.43
2022-08-10T01:00:46.623Z,64.82
2022-08-10T01:02:10.045Z,65.01
2022-08-10T01:02:46.707Z,64.73
2022-08-10T01:04:36.136Z,64.34
2022-08-10T01:05:00.081Z,64.53
2022-08-10T01:05:51.272Z,64.63
2022-08-10T01:06:46.334Z,64.82
2022-08-10T01:07:46.286Z,64.69
2022-08-10T01:08:46.257Z,64.89
2022-08-10T01:09:56.938Z,66.07
2022-08-10T01:10:46.146Z,66.23
2022-08-10T01:12:39.650Z,65.66
2022-08-10T01:12:46.046Z,66.42
2022-08-10T01:13:46.000Z,66.42
2022-08-10T01:14:45.965Z,66.14
2022-08-10T01:15:45.900Z,66.04
2022-08-10T01:16:45.859Z,67.19
2022-08-10T01:17:50.357Z,67.38
2022-08-10T01:18:45.761Z,66.39
2022-08-10T01:19:45.721Z,67.16
2022-08-10T01:20:45.676Z,67.16
2022-08-10T01:21:54.244Z,67.07
2022-08-10T01:22:45.577Z,67.07
2022-08-10T01:23:45.518Z,67.35
2022-08-10T01:24:45.483Z,67.07
2022-08-10T01:26:12.329Z,67.07
2022-08-10T01:26:45.373Z,67.25
2022-08-10T01:27:45.333Z,67.74
2022-08-10T01:28:45.275Z,67.64
2022-08-10T01:29:45.242Z,68.02
2022-08-10T01:30:45.219Z,68.31
2022-08-10T01:31:45.135Z,68.21
2022-08-10T01:32:45.082Z,68.02
2022-08-10T01:33:58.052Z,67.74
2022-08-10T01:34:45.002Z,67.35
2022-08-10T01:35:44.938Z,67.35
2022-08-10T01:36:44.890Z,67.64
2022-08-10T01:37:52.381Z,68.21
2022-08-10T01:38:44.791Z,68.21
2022-08-10T01:39:44.786Z,67.93
2022-08-10T01:40:44.709Z,68.21
2022-08-10T01:41:46.129Z,68.60
2022-08-10T01:42:44.597Z,68.47
2022-08-10T01:43:44.550Z,68.79
2022-08-10T01:44:44.520Z,68.37
2022-08-10T01:45:45.911Z,68.85
2022-08-10T01:46:44.402Z,68.47
2022-08-10T01:47:44.355Z,69.72
2022-08-10T01:48:44.313Z,69.53
2022-08-10T01:49:44.276Z,69.24
2022-08-10T01:50:59.488Z,69.34
2022-08-10T01:51:44.163Z,69.43
2022-08-10T01:52:44.153Z,70.39
2022-08-10T01:53:44.070Z,69.53
2022-08-10T01:54:44.019Z,70.10
2022-08-10T01:55:43.967Z,70.10
2022-08-10T01:56:43.920Z,71.35
2022-08-10T01:57:43.881Z,70.87
2022-08-10T01:58:43.822Z,71.22
2022-08-10T01:59:43.771Z,71.03
2022-08-10T02:00:43.727Z,70.74
2022-08-10T02:01:43.732Z,70.93
2022-08-10T02:02:43.624Z,70.93
2022-08-10T02:04:04.457Z,70.45
2022-08-10T02:04:43.555Z,71.22
2022-08-10T02:05:43.479Z,70.26
2022-08-10T02:06:43.461Z,70.84
2022-08-10T02:07:43.396Z,70.74
2022-08-10T02:08:43.333Z,71.03
2022-08-10T02:09:43.300Z,70.74
2022-08-10T02:10:43.234Z,70.93
2022-08-10T02:11:55.992Z,71.03
2022-08-10T02:12:43.135Z,71.31
2022-08-10T02:13:43.188Z,71.22
2022-08-10T02:14:43.039Z,71.80
2022-08-10T02:16:02.147Z,72.18
2022-08-10T02:16:42.943Z,71.12
2022-08-10T02:17:59.157Z,71.37
2022-08-10T02:18:42.841Z,71.51
2022-08-10T02:19:42.793Z,71.80
2022-08-10T02:20:42.758Z,71.76
2022-08-10T02:22:36.275Z,72.14
2022-08-10T02:22:42.658Z,71.95
2022-08-10T02:23:42.597Z,71.86
2022-08-10T02:24:42.552Z,72.14
2022-08-10T02:25:43.794Z,73.00
2022-08-10T02:26:42.450Z,73.68
2022-08-10T02:27:42.422Z,74.41
2022-08-10T02:28:42.353Z,74.51
2022-08-10T02:29:42.624Z,73.83
2022-08-10T02:30:42.252Z,74.02
2022-08-10T02:31:42.204Z,74.31
2022-08-10T02:32:44.088Z,74.22
2022-08-10T02:33:56.831Z,74.51
2022-08-10T02:34:42.066Z,74.60
2022-08-10T02:35:54.396Z,74.02
2022-08-10T02:36:41.959Z,73.74
2022-08-10T02:37:41.921Z,74.12
2022-08-10T02:38:59.493Z,74.22
2022-08-10T02:39:41.850Z,75.08
2022-08-10T02:42:18.307Z,74.41
2022-08-10T02:45:12.564Z,74.69
2022-08-10T02:45:17.811Z,74.69
2022-08-10T02:45:19.603Z,75.27
2022-08-10T02:45:22.327Z,74.22
2022-08-10T02:45:41.514Z,75.08
2022-08-10T02:46:41.464Z,74.79
2022-08-10T02:47:51.791Z,75.18
2022-08-10T02:48:41.380Z,75.37
2022-08-10T02:49:41.314Z,75.65
2022-08-10T02:50:41.286Z,75.46
2022-08-10T02:52:07.658Z,75.27
2022-08-10T02:52:41.171Z,75.37
2022-08-10T02:53:55.791Z,76.86
2022-08-10T02:54:41.082Z,75.62
2022-08-10T02:55:41.021Z,76.00
2022-08-10T02:56:40.985Z,76.23
2022-08-10T02:58:17.114Z,76.48
2022-08-10T02:58:40.869Z,76.52
2022-08-10T02:59:40.822Z,76.10
2022-08-10T03:00:40.826Z,76.10
2022-08-10T03:01:40.786Z,76.32
2022-08-10T03:02:40.675Z,76.39
2022-08-10T03:03:40.622Z,76.10
2022-08-10T03:04:55.277Z,76.57
2022-08-10T03:05:40.526Z,76.57
2022-08-10T03:06:40.488Z,76.39
2022-08-10T03:07:43.723Z,76.48
2022-08-10T03:08:40.378Z,76.39
2022-08-10T03:09:40.326Z,76.77
2022-08-10T03:10:40.286Z,76.48
2022-08-10T03:12:35.819Z,76.48
2022-08-10T03:12:40.175Z,77.06
2022-08-10T03:13:40.126Z,76.00
2022-08-10T03:14:40.089Z,76.86
2022-08-10T03:15:40.029Z,76.77
2022-08-10T03:16:39.978Z,76.57
2022-08-10T03:17:39.927Z,76.86
2022-08-10T03:18:39.877Z,77.34
2022-08-10T03:20:33.463Z,78.07
2022-08-10T03:20:40.219Z,78.74
2022-08-10T03:21:39.731Z,79.32
2022-08-10T03:22:39.677Z,79.32
2022-08-10T03:23:39.634Z,79.41
2022-08-10T03:24:39.592Z,79.41
2022-08-10T03:25:39.528Z,78.99
2022-08-10T03:26:39.481Z,79.51
2022-08-10T03:27:39.450Z,79.99
2022-08-10T03:28:39.379Z,80.08
2022-08-10T03:30:28.283Z,79.57
2022-08-10T03:30:39.277Z,80.37
2022-08-10T03:31:40.220Z,79.51
2022-08-10T03:32:39.181Z,79.51
2022-08-10T03:33:39.147Z,79.41
2022-08-10T03:34:39.087Z,79.41
2022-08-10T03:35:39.032Z,79.32
2022-08-10T03:36:42.184Z,79.32
2022-08-10T03:37:38.945Z,79.41
2022-08-10T03:38:38.891Z,79.41
2022-08-10T03:39:38.945Z,79.51
2022-08-10T03:40:46.271Z,79.99
2022-08-10T03:41:38.726Z,79.51
2022-08-10T03:42:38.681Z,79.89
2022-08-10T03:43:38.651Z,79.70
2022-08-10T03:44:38.582Z,79.51
2022-08-10T03:45:54.537Z,79.41
2022-08-10T03:46:38.480Z,80.24
2022-08-10T03:47:38.431Z,79.95
2022-08-10T03:48:46.888Z,79.89
2022-08-10T03:49:38.348Z,80.43
2022-08-10T03:50:52.287Z,80.33
2022-08-10T03:51:38.269Z,80.33
2022-08-10T03:52:38.251Z,80.62
2022-08-10T03:54:03.473Z,79.95
2022-08-10T03:54:38.121Z,80.33
2022-08-10T03:56:28.592Z,80.81
2022-08-10T03:56:38.046Z,81.48
2022-08-10T03:57:49.486Z,81.20
2022-08-10T03:58:37.916Z,81.29
2022-08-10T03:59:37.864Z,81.38
2022-08-10T04:00:37.880Z,81.20
2022-08-10T04:02:41.473Z,81.00
2022-08-10T04:02:44.496Z,81.10
2022-08-10T04:03:37.672Z,80.90
2022-08-10T04:04:37.637Z,81.20
2022-08-10T04:05:38.742Z,81.38
2022-08-10T04:06:37.523Z,81.57
2022-08-10T04:07:37.496Z,81.10
2022-08-10T04:08:37.400Z,81.77
2022-08-10T04:09:53.190Z,81.29
2022-08-10T04:10:37.314Z,82.53
2022-08-10T04:11:37.260Z,81.96
2022-08-10T04:12:37.471Z,81.57
2022-08-10T04:13:37.157Z,81.38
2022-08-10T04:14:49.882Z,82.15
2022-08-10T04:15:37.038Z,82.73
2022-08-10T04:16:37.014Z,82.01
2022-08-10T04:17:59.508Z,82.01
2022-08-10T04:18:36.933Z,82.59
2022-08-10T04:19:36.857Z,83.54
2022-08-10T04:20:36.804Z,83.64
2022-08-10T04:21:36.743Z,83.45
2022-08-10T04:22:36.964Z,84.02
2022-08-10T04:23:36.681Z,83.73
2022-08-10T04:24:36.605Z,83.45
2022-08-10T04:25:36.550Z,83.83
2022-08-10T04:26:36.480Z,83.36
2022-08-10T04:27:36.457Z,83.16
2022-08-10T04:28:36.427Z,83.54
2022-08-10T04:29:36.349Z,83.83
2022-08-10T04:30:36.299Z,83.45
2022-08-10T04:31:36.250Z,83.93
2022-08-10T04:32:36.356Z,83.16
2022-08-10T04:33:36.168Z,83.64
2022-08-10T04:34:36.098Z,83.93
2022-08-10T04:35:36.068Z,83.54
2022-08-10T04:36:36.012Z,83.93
2022-08-10T04:37:35.948Z,83.83
2022-08-10T04:38:35.926Z,84.31
2022-08-10T04:39:36.032Z,84.22
2022-08-10T04:40:35.823Z,84.31
2022-08-10T04:41:35.761Z,83.93
2022-08-10T04:42:35.890Z,83.64
2022-08-10T04:43:35.660Z,83.93
2022-08-10T04:44:35.607Z,84.31
2022-08-10T04:45:48.832Z,84.41
2022-08-10T04:46:42.547Z,84.12
2022-08-10T04:47:51.259Z,84.12
2022-08-10T04:48:40.551Z,84.12
2022-08-10T04:49:56.474Z,84.31
2022-08-10T04:50:35.336Z,84.79
2022-08-10T04:51:35.281Z,84.12
2022-08-10T04:52:35.349Z,84.02
2022-08-10T04:54:02.936Z,84.22
2022-08-10T04:54:35.080Z,84.12
2022-08-10T04:55:35.040Z,84.88
2022-08-10T04:56:35.026Z,85.17
2022-08-10T04:57:34.914Z,84.79
2022-08-10T04:58:34.884Z,84.88
2022-08-10T04:59:34.844Z,85.08
2022-08-10T05:00:34.842Z,84.41
2022-08-10T05:02:21.125Z,84.69
2022-08-10T05:02:34.826Z,84.31
2022-08-10T05:03:34.686Z,84.31
2022-08-10T05:04:38.235Z,85.27
2022-08-10T05:05:34.530Z,85.08
2022-08-10T05:06:34.516Z,84.02
2022-08-10T05:07:43.420Z,84.22
2022-08-10T05:08:34.395Z,85.27
2022-08-10T05:09:35.548Z,83.73
2022-08-10T05:10:34.278Z,84.88
2022-08-10T05:11:34.250Z,84.88
2022-08-10T05:12:36.060Z,84.88
2022-08-10T05:13:34.138Z,84.98
2022-08-10T05:14:34.109Z,84.06
2022-08-10T05:15:34.007Z,84.92
2022-08-10T05:16:33.975Z,85.41
2022-08-10T05:17:33.925Z,84.26
2022-08-10T05:18:33.908Z,84.41
2022-08-10T05:20:03.883Z,84.55
2022-08-10T05:20:33.775Z,84.83
2022-08-10T05:21:52.994Z,85.31
2022-08-10T05:22:33.674Z,85.02
2022-08-10T05:23:33.652Z,84.74
2022-08-10T05:24:33.590Z,85.31
2022-08-10T05:25:37.272Z,85.21
2022-08-10T05:26:33.469Z,85.31
2022-08-10T05:27:33.415Z,85.21
2022-08-10T05:28:35.150Z,84.92
2022-08-10T05:29:33.353Z,84.16
2022-08-10T05:30:33.293Z,84.16
2022-08-10T05:31:33.196Z,84.45
2022-08-10T05:32:55.645Z,84.30
2022-08-10T05:33:33.099Z,84.39
2022-08-10T05:34:33.076Z,84.01
2022-08-10T05:35:57.868Z,83.92
2022-08-10T05:36:32.949Z,83.15
2022-08-10T05:38:10.083Z,83.82
2022-08-10T05:38:32.888Z,83.82
2022-08-10T05:39:32.819Z,83.72
2022-08-10T05:40:32.792Z,83.92
2022-08-10T05:41:32.711Z,83.92
2022-08-10T05:42:32.712Z,84.01
2022-08-10T05:43:32.637Z,83.92
2022-08-10T05:44:32.577Z,83.63
2022-08-10T05:45:32.548Z,83.92
2022-08-10T05:46:32.449Z,83.63
2022-08-10T05:48:53.979Z,83.19
2022-08-10T05:48:54.952Z,83.92
2022-08-10T05:49:32.320Z,83.58
2022-08-10T05:50:32.299Z,83.00
2022-08-10T05:51:32.211Z,83.09
2022-08-10T05:52:32.161Z,83.29
2022-08-10T05:54:03.408Z,82.81
2022-08-10T05:54:32.067Z,82.81
2022-08-10T05:55:32.000Z,82.71
2022-08-10T05:56:55.715Z,82.52
2022-08-10T05:57:31.890Z,83.00
2022-08-10T05:58:31.844Z,82.71
2022-08-10T06:00:34.551Z,82.62
2022-08-10T06:00:36.193Z,82.71
2022-08-10T06:01:31.831Z,83.29
2022-08-10T06:02:35.445Z,83.00
2022-08-10T06:03:31.585Z,82.90
2022-08-10T06:04:31.586Z,83.48
2022-08-10T06:05:31.484Z,82.52
2022-08-10T06:06:31.465Z,83.09
2022-08-10T06:07:31.411Z,83.09
2022-08-10T06:08:31.351Z,82.81
2022-08-10T06:09:31.314Z,82.71
2022-08-10T06:10:32.475Z,82.85
2022-08-10T06:12:24.575Z,82.81
2022-08-10T06:12:32.786Z,82.94
2022-08-10T06:13:34.808Z,82.94
2022-08-10T06:14:31.048Z,82.94
2022-08-10T06:15:50.894Z,83.14
2022-08-10T06:16:30.947Z,83.04
2022-08-10T06:17:30.900Z,82.85
2022-08-10T06:18:30.877Z,82.85
2022-08-10T06:19:30.829Z,83.23
2022-08-10T06:20:35.360Z,82.94
2022-08-10T06:21:30.747Z,82.75
2022-08-10T06:22:30.691Z,82.56
2022-08-10T06:23:30.615Z,82.94
2022-08-10T06:24:31.103Z,82.85
2022-08-10T06:26:11.295Z,82.37
2022-08-10T06:26:30.500Z,82.27
2022-08-10T06:27:34.765Z,82.51
2022-08-10T06:28:30.398Z,82.51
2022-08-10T06:29:30.340Z,82.31
2022-08-10T06:30:30.267Z,82.51
2022-08-10T06:31:48.548Z,82.41
2022-08-10T06:32:30.160Z,82.12
2022-08-10T06:33:30.112Z,82.12
2022-08-10T06:34:30.095Z,81.84
2022-08-10T06:35:30.011Z,81.54
2022-08-10T06:36:33.973Z,81.74
2022-08-10T06:37:29.899Z,81.35
2022-08-10T06:38:29.859Z,81.45
2022-08-10T06:39:34.180Z,81.74
2022-08-10T06:40:29.875Z,81.74
2022-08-10T06:42:15.142Z,81.74
2022-08-10T06:42:29.651Z,81.54
2022-08-10T06:43:29.645Z,81.30
2022-08-10T06:44:29.576Z,81.78
2022-08-10T06:45:29.530Z,80.91
2022-08-10T06:46:29.452Z,81.49
2022-08-10T06:47:29.420Z,81.10
2022-08-10T06:48:29.376Z,80.91
2022-08-10T06:49:29.325Z,80.73
2022-08-10T06:50:45.052Z,80.91
2022-08-10T06:51:29.255Z,80.53
2022-08-10T06:52:29.225Z,81.01
2022-08-10T06:53:53.012Z,80.15
2022-08-10T06:54:29.077Z,80.73
2022-08-10T06:55:40.117Z,80.38
2022-08-10T06:56:36.745Z,80.24
2022-08-10T06:57:28.950Z,80.86
2022-08-10T06:58:28.878Z,80.57
2022-08-10T06:59:28.820Z,80.28
2022-08-10T07:00:33.658Z,80.28
2022-08-10T07:01:28.783Z,79.99
2022-08-10T07:02:28.702Z,79.99
2022-08-10T07:03:28.639Z,80.38
2022-08-10T07:04:32.938Z,80.66
2022-08-10T07:05:28.516Z,80.09
2022-08-10T07:06:28.481Z,80.19
2022-08-10T07:07:28.402Z,80.22
2022-08-10T07:08:28.399Z,79.94
2022-08-10T07:09:28.352Z,79.99
2022-08-10T07:10:45.231Z,79.84
2022-08-10T07:11:28.217Z,79.65
2022-08-10T07:12:28.187Z,80.13
2022-08-10T07:14:16.367Z,80.04
2022-08-10T07:14:28.091Z,79.46
2022-08-10T07:16:00.214Z,79.84
2022-08-10T07:16:27.977Z,79.46
2022-08-10T07:17:27.931Z,79.36
2022-08-10T07:18:27.879Z,79.46
2022-08-10T07:19:27.838Z,79.50
2022-08-10T07:20:27.810Z,79.60
2022-08-10T07:21:27.751Z,79.11
2022-08-10T07:23:01.784Z,78.53
2022-08-10T07:23:58.220Z,78.34
2022-08-10T07:24:27.626Z,78.63
2022-08-10T07:25:27.568Z,78.63
2022-08-10T07:26:27.491Z,78.53
2022-08-10T07:27:27.422Z,78.09
2022-08-10T07:28:27.398Z,78.25
2022-08-10T07:29:54.425Z,77.51
2022-08-10T07:30:27.283Z,77.81
2022-08-10T07:31:54.484Z,77.23
2022-08-10T07:32:27.235Z,77.04
2022-08-10T07:33:27.140Z,76.84
2022-08-10T07:34:29.349Z,76.75
2022-08-10T07:35:27.059Z,76.46
2022-08-10T07:36:27.021Z,76.94
2022-08-10T07:37:26.969Z,77.33
2022-08-10T07:38:26.900Z,77.17
2022-08-10T07:39:58.200Z,77.26
2022-08-10T07:40:26.929Z,77.26
2022-08-10T07:41:26.760Z,77.08
2022-08-10T07:42:26.799Z,76.98
2022-08-10T07:43:26.749Z,76.59
2022-08-10T07:44:26.626Z,76.21
2022-08-10T07:45:26.553Z,75.54
2022-08-10T07:46:26.593Z,75.67
2022-08-10T07:47:54.038Z,75.48
2022-08-10T07:48:26.452Z,75.48
2022-08-10T07:49:26.375Z,74.61
2022-08-10T07:50:26.327Z,74.99
2022-08-10T07:51:26.249Z,74.51
2022-08-10T07:52:26.259Z,74.55
2022-08-10T07:53:26.201Z,75.13
2022-08-10T07:54:26.145Z,74.45
2022-08-10T07:56:05.316Z,74.16
2022-08-10T07:56:45.824Z,74.26
2022-08-10T07:57:30.749Z,74.26
2022-08-10T07:58:25.965Z,73.88
2022-08-10T07:59:25.901Z,73.43
2022-08-10T08:00:25.841Z,72.85
2022-08-10T08:01:25.843Z,72.66
2022-08-10T08:02:25.749Z,71.89
2022-08-10T08:03:25.755Z,72.69
2022-08-10T08:04:25.656Z,72.50
2022-08-10T08:05:55.137Z,72.41
2022-08-10T08:06:25.550Z,71.83
2022-08-10T08:07:25.477Z,71.73
2022-08-10T08:08:25.480Z,71.48
2022-08-10T08:09:25.430Z,71.48
2022-08-10T08:10:25.381Z,71.28
2022-08-10T08:11:25.446Z,70.80
2022-08-10T08:12:25.296Z,70.45
2022-08-10T08:13:25.237Z,70.26
2022-08-10T08:14:25.198Z,70.16
2022-08-10T08:16:19.637Z,70.26
2022-08-10T08:16:25.078Z,70.54
2022-08-10T08:17:25.071Z,70.10
2022-08-10T08:18:25.052Z,69.42
2022-08-10T08:19:27.368Z,69.04
2022-08-10T08:20:24.898Z,68.40
2022-08-10T08:24:05.152Z,65.05
2022-08-10T08:24:07.380Z,62.21
2022-08-10T08:24:08.885Z,66.75
2022-08-10T08:24:30.839Z,57.69
2022-08-10T08:25:24.658Z,55.58
2022-08-10T08:26:24.615Z,54.94
2022-08-10T08:27:24.592Z,53.41
2022-08-10T08:28:24.510Z,52.37
2022-08-10T08:29:24.477Z,51.72
2022-08-10T08:30:27.642Z,50.09
2022-08-10T08:31:24.366Z,51.16
2022-08-10T08:32:24.331Z,49.92
2022-08-10T08:33:42.071Z,49.92
2022-08-10T08:34:24.949Z,49.63
2022-08-10T08:35:24.185Z,50.92
2022-08-10T08:36:24.160Z,49.49
2022-08-10T08:38:32.683Z,48.41
2022-08-10T08:38:32.798Z,49.00
2022-08-10T08:39:24.104Z,48.03
2022-08-10T08:40:23.945Z,48.03
2022-08-10T08:41:23.889Z,47.74
2022-08-10T08:42:23.860Z,47.74
2022-08-10T08:43:27.282Z,48.73
2022-08-10T08:44:23.798Z,49.17
2022-08-10T08:45:23.717Z,48.14
2022-08-10T08:46:23.695Z,46.14
2022-08-10T08:48:03.987Z,45.41
2022-08-10T08:48:23.597Z,43.69
2022-08-10T08:50:05.160Z,42.36
2022-08-10T08:50:23.539Z,42.11
2022-08-10T08:52:08.200Z,40.84
2022-08-10T08:52:23.429Z,40.95
2022-08-10T08:53:23.375Z,40.76
2022-08-10T08:54:23.344Z,41.08
2022-08-10T08:56:02.903Z,40.23
2022-08-10T08:56:23.248Z,39.45
2022-08-10T08:57:50.316Z,39.15
2022-08-10T08:58:23.160Z,37.66
2022-08-10T08:59:23.130Z,38.10
2022-08-10T09:00:23.098Z,39.35
2022-08-10T09:01:23.055Z,38.22
2022-08-10T09:02:22.976Z,37.85
2022-08-10T09:03:27.553Z,38.96
2022-08-10T09:04:22.909Z,40.48
2022-08-10T09:05:22.891Z,41.55
2022-08-10T09:06:22.816Z,43.62
2022-08-10T09:07:59.355Z,43.27
2022-08-10T09:08:22.745Z,41.05
2022-08-10T09:09:22.726Z,40.93
2022-08-10T09:10:22.656Z,42.30
2022-08-10T09:11:22.629Z,42.14
2022-08-10T09:12:22.570Z,41.41
2022-08-10T09:13:22.545Z,39.88
2022-08-10T09:14:25.495Z,39.04
2022-08-10T09:15:40.350Z,38.57
2022-08-10T09:16:22.385Z,38.88
2022-08-10T09:17:22.388Z,38.70
2022-08-10T09:18:22.323Z,38.13
2022-08-10T09:19:35.019Z,38.62
2022-08-10T09:20:22.211Z,38.45
2022-08-10T09:21:22.222Z,38.27
2022-08-10T09:22:22.137Z,37.19
2022-08-10T09:23:22.110Z,36.70
2022-08-10T09:24:22.075Z,36.42
2022-08-10T09:25:22.040Z,36.44
2022-08-10T09:26:21.972Z,36.15
2022-08-10T09:27:21.976Z,35.55
2022-08-10T09:28:21.917Z,36.24
2022-08-10T09:29:21.878Z,36.36
2022-08-10T09:30:29.081Z,36.36
2022-08-10T09:31:23.067Z,36.28
2022-08-10T09:36:16.158Z,35.69
2022-08-10T09:36:20.171Z,35.97
2022-08-10T09:36:22.447Z,35.55
2022-08-10T09:36:24.973Z,35.99
2022-08-10T09:36:32.664Z,35.55
2022-08-10T09:37:21.568Z,36.24
2022-08-10T09:38:21.499Z,35.47
2022-08-10T09:40:56.203Z,35.38
2022-08-10T09:40:59.861Z,35.78
2022-08-10T09:41:21.400Z,35.31
2022-08-10T09:42:21.467Z,34.53
2022-08-10T09:43:26.139Z,35.00
2022-08-10T09:44:21.262Z,35.18
2022-08-10T09:45:21.271Z,35.46
2022-08-10T09:46:21.171Z,35.66
2022-08-10T09:47:21.166Z,35.55
2022-08-10T09:48:21.080Z,35.24
2022-08-10T09:49:25.238Z,36.15
2022-08-10T09:50:21.048Z,36.24
2022-08-10T09:51:48.121Z,35.77
2022-08-10T09:52:20.963Z,35.38
2022-08-10T09:53:20.869Z,35.00
2022-08-10T09:54:20.859Z,33.98
2022-08-10T09:55:20.857Z,34.87
2022-08-10T09:56:24.217Z,34.36
2022-08-10T09:57:44.988Z,34.23
2022-08-10T09:58:20.731Z,36.09
2022-08-10T09:59:27.228Z,35.82
2022-08-10T10:00:20.616Z,35.54
2022-08-10T10:02:02.635Z,35.14
2022-08-10T10:02:20.529Z,35.74
2022-08-10T10:03:24.047Z,35.02
2022-08-10T10:04:20.476Z,34.90
2022-08-10T10:05:20.426Z,34.88
2022-08-10T10:06:20.361Z,34.94
2022-08-10T10:07:20.383Z,35.81
2022-08-10T10:08:20.337Z,37.18
2022-08-10T10:09:26.676Z,36.32
2022-08-10T10:10:20.232Z,35.48
2022-08-10T10:11:20.214Z,36.24
2022-08-10T10:12:20.146Z,37.83
2022-08-10T10:13:20.121Z,36.57
2022-08-10T10:14:20.072Z,35.75
2022-08-10T10:15:24.996Z,36.60
2022-08-10T10:16:20.037Z,38.16
2022-08-10T10:17:19.938Z,38.06
2022-08-10T10:18:19.915Z,38.75
2022-08-10T10:19:19.869Z,38.38
2022-08-10T10:20:19.830Z,37.79
2022-08-10T10:21:24.182Z,37.87
2022-08-10T10:22:19.760Z,39.14
2022-08-10T10:23:19.710Z,39.16
2022-08-10T10:24:20.180Z,38.48
2022-08-10T10:25:21.328Z,38.38
2022-08-10T10:26:19.562Z,38.96
2022-08-10T10:27:19.584Z,39.36
2022-08-10T10:28:19.478Z,38.49
2022-08-10T10:29:56.331Z,37.04
2022-08-10T10:30:19.405Z,36.15
2022-08-10T10:31:19.374Z,36.24
2022-08-10T10:32:19.355Z,36.24
2022-08-10T10:33:19.314Z,36.13
2022-08-10T10:34:19.290Z,36.44
2022-08-10T10:35:19.215Z,36.24
2022-08-10T10:36:19.175Z,37.02
2022-08-10T10:37:19.158Z,36.85
2022-08-10T10:38:19.105Z,36.96
2022-08-10T10:39:23.780Z,36.80
2022-08-10T10:40:19.012Z,35.71
2022-08-10T10:41:18.969Z,36.07
2022-08-10T10:42:42.134Z,36.16
2022-08-10T10:43:18.911Z,36.52
2022-08-10T10:44:18.952Z,37.40
2022-08-10T10:45:18.800Z,38.38
2022-08-10T10:46:23.092Z,37.11
2022-08-10T10:47:18.728Z,36.99
2022-08-10T10:48:23.975Z,37.29
2022-08-10T10:49:18.769Z,37.09
2022-08-10T10:50:18.637Z,37.77
2022-08-10T10:51:18.583Z,37.79
2022-08-10T10:52:18.532Z,36.93
2022-08-10T10:53:18.524Z,36.44
2022-08-10T10:54:18.462Z,36.21
2022-08-10T10:55:18.417Z,37.05
2022-08-10T10:56:18.354Z,37.81
2022-08-10T10:57:18.308Z,38.79
2022-08-10T10:58:20.700Z,39.20
2022-08-10T10:59:55.137Z,40.58
2022-08-10T11:00:18.232Z,40.33
2022-08-10T11:01:18.265Z,38.61
2022-08-10T11:02:18.092Z,38.06
2022-08-10T11:03:18.118Z,37.12
2022-08-10T11:04:18.050Z,36.55
2022-08-10T11:05:18.016Z,35.97
2022-08-10T11:06:17.962Z,34.51
2022-08-10T11:07:17.972Z,34.31
2022-08-10T11:08:17.863Z,34.70
2022-08-10T11:10:03.296Z,34.70
2022-08-10T11:10:32.033Z,33.80
2022-08-10T11:11:59.711Z,34.86
2022-08-10T11:12:17.717Z,35.57
2022-08-10T11:14:25.578Z,35.96
2022-08-10T11:14:25.832Z,35.47
2022-08-10T11:15:17.611Z,35.76
2022-08-10T11:16:17.548Z,36.16
2022-08-10T11:17:17.514Z,35.88
2022-08-10T11:18:17.506Z,35.76
2022-08-10T11:19:17.491Z,35.86
2022-08-10T11:20:17.430Z,35.45
2022-08-10T11:21:17.350Z,35.85
2022-08-10T11:22:17.310Z,36.33
2022-08-10T11:23:17.317Z,36.92
2022-08-10T11:24:48.229Z,36.33
2022-08-10T11:25:17.188Z,36.45
2022-08-10T11:26:17.193Z,35.96
2022-08-10T11:27:21.555Z,35.49
2022-08-10T11:28:17.056Z,35.39
2022-08-10T11:29:17.058Z,35.58
2022-08-10T11:30:16.977Z,35.99
2022-08-10T11:31:16.977Z,35.60
2022-08-10T11:32:20.480Z,36.11
2022-08-10T11:33:30.851Z,35.54
2022-08-10T11:34:47.091Z,35.26
2022-08-10T11:35:16.792Z,34.99
2022-08-10T11:36:16.755Z,34.51
2022-08-10T11:37:16.749Z,33.92
2022-08-10T11:38:28.671Z,34.01
2022-08-10T11:39:16.750Z,33.53
2022-08-10T11:40:16.593Z,34.01
2022-08-10T11:42:09.498Z,33.80
2022-08-10T11:42:26.577Z,34.39
2022-08-10T11:43:16.507Z,34.97
2022-08-10T11:44:16.457Z,34.67
2022-08-10T11:45:16.408Z,34.85
2022-08-10T11:46:27.654Z,35.05
2022-08-10T11:47:16.316Z,34.64
2022-08-10T11:48:54.326Z,34.93
2022-08-10T11:49:16.253Z,34.83
2022-08-10T11:50:16.197Z,34.93
2022-08-10T11:51:16.265Z,35.03
2022-08-10T11:52:16.150Z,34.93
2022-08-10T11:53:16.100Z,35.14
2022-08-10T11:54:16.108Z,34.85
2022-08-10T11:55:16.041Z,34.97
2022-08-10T11:56:15.994Z,34.69
2022-08-10T11:57:16.147Z,34.70
2022-08-10T11:58:16.041Z,33.12
2022-08-10T11:59:16.547Z,33.00
2022-08-10T12:00:15.806Z,33.29
2022-08-10T12:01:15.810Z,33.77
2022-08-10T12:02:15.860Z,34.66
2022-08-10T12:03:15.737Z,34.16
2022-08-10T12:04:15.801Z,33.77
2022-08-10T12:05:15.615Z,34.56
2022-08-10T12:06:15.575Z,32.95
2022-08-10T12:10:03.935Z,34.44
2022-08-10T12:10:07.010Z,33.23
2022-08-10T12:10:10.529Z,33.10
2022-08-10T12:10:15.556Z,34.41
2022-08-10T12:11:23.712Z,35.36
2022-08-10T12:12:15.505Z,35.85
2022-08-10T12:13:15.350Z,37.43
2022-08-10T12:14:21.959Z,37.16
2022-08-10T12:15:15.270Z,37.06
2022-08-10T12:16:15.229Z,36.40
2022-08-10T12:17:15.231Z,36.88
2022-08-10T12:18:15.161Z,37.00
2022-08-10T12:19:15.117Z,36.04
2022-08-10T12:20:15.140Z,36.16
2022-08-10T12:21:21.933Z,35.86
2022-08-10T12:22:14.985Z,35.37
2022-08-10T12:23:14.938Z,34.96
2022-08-10T12:24:14.933Z,35.16
2022-08-10T12:25:51.614Z,35.04
2022-08-10T12:26:14.823Z,35.14
2022-08-10T12:27:14.793Z,35.24
2022-08-10T12:28:14.760Z,35.71
2022-08-10T12:29:14.729Z,35.81
2022-08-10T12:30:14.685Z,35.81
2022-08-10T12:31:14.662Z,35.91
2022-08-10T12:32:14.596Z,35.73
2022-08-10T12:33:14.562Z,36.02
2022-08-10T12:34:14.524Z,36.43
2022-08-10T12:35:21.674Z,35.76
2022-08-10T12:36:18.238Z,35.58
2022-08-10T12:37:14.418Z,35.68
2022-08-10T12:38:14.384Z,35.41
2022-08-10T12:39:14.495Z,35.23
2022-08-10T12:40:43.833Z,34.85
2022-08-10T12:41:14.274Z,34.97
2022-08-10T12:42:39.339Z,34.18
2022-08-10T12:44:05.682Z,34.47
2022-08-10T12:44:14.116Z,33.98
2022-08-10T12:45:14.148Z,32.20
2022-08-10T12:46:14.027Z,32.09
2022-08-10T12:47:14.369Z,33.25
2022-08-10T12:48:13.993Z,34.42
2022-08-10T12:49:13.933Z,34.92
2022-08-10T12:50:30.460Z,35.21
2022-08-10T12:51:13.871Z,34.74
2022-08-10T12:52:13.801Z,35.03